EGDY METAR and TAF | Updated Today

EGDY METAR

RNAS Yeovilton

Observation time: 34 min. ago

EGDY 080550Z 22009KT 9999 FEW040 06/02 Q0988 BLU

Need help? Read our tutorial on how to read METARs or read the parsed version below.

RNAS Yeovilton (EGDY) METAR

  • Weather conditions on Wed, 08 Dec 2021 05:50:00 +0000 (34 min. ago):
  • Present conditions: Dry
  • Clouds: A few at 1219 meters
  • Visibility: Greater than 10 km
  • Wind: 220 degrees at 9 knots
  • Temperature: 6 celsius
  • Dew point: 2 celsius
  • Pressure: 988 millibars
  • Remarks: None


Useful to know...

EGDY TAF

RNAS Yeovilton

TAF EGDY 080600Z 0806/0815 22010G20KT 9999 SCT040 BECMG 0808/0810 27015G25KT TEMPO 0809/0815 27015G30KT 4000 SHRA SCT030TCU
Observation time: 24 min. ago
Need help? Read our tutorial on how to read TAFs or read the parsed version below.

Parsed version of TAF for RNAS Yeovilton (EGDY)

  • From 08 December at 06:00 UTC, to day 08 of the month at 15:00 UTC
  • Clouds: Scattered at 1219 meters
  • Visibility: Greater than 10 km
  • Wind: 220 degrees at 10
  • Expected to arise soon, from 08 December at 08:00 UTC, to day 08 of the month at 10:00 UTC
  • Wind: 270 degrees at 15
  • Expected to arise temporarily, from 08 December at 09:00 UTC, to day 08 of the month at 15:00 UTC
  • Clouds: Scattered at 914 meters, towering cumulus
  • Visibility: 4000 meters
  • Wind: 270 degrees at 15
  • Other: Showers of rain